Flight Track Log - Related Links

Times and Time Zones

All times are in EDT time to prevent confusion due to time zone crossing. See the N1279D flight status page for this flight to view local times or setup timezone preferences in your user account.

Time Position Orientation Groundspeed Altitude Reporting Facility
EDT Latitude Longitude Course Direction KTS MPH feet Rate Location/Type
Sat 03:37:49 PM 41.0206 -100.7200 205° Southwest 251 289 7,800  Level Denver Center
Sat 03:38:49 PM 40.9842 -100.7422 196° South 161 185 9,500 1,500 Climbing Denver Center
Sat 03:39:49 PM 40.9472 -100.7564 193° South 136 157 10,800 1,200 Climbing Denver Center
Sat 03:40:49 PM 40.9103 -100.7678 195° South 146 168 11,900 1,350 Climbing Denver Center
Sat 03:41:49 PM 40.8672 -100.7825 196° South 146 168 13,500 1,450 Climbing Denver Center
Sat 03:42:49 PM 40.8283 -100.7969 200° South 146 168 14,800 1,300 Climbing Denver Center
Sat 03:43:49 PM 40.7936 -100.8136 196° South 151 174 16,100 1,400 Climbing Denver Center
Sat 03:44:49 PM 40.7486 -100.8311 195° South 151 174 17,600 1,500 Climbing Denver Center
Sat 03:45:49 PM 40.7097 -100.8453 197° South 141 162 19,100 1,250 Climbing Denver Center
Sat 03:46:49 PM 40.6750 -100.8594 196° South 146 168 20,100 1,100 Climbing Denver Center
Sat 03:47:49 PM 40.6381 -100.8733 198° South 146 168 21,300 1,300 Climbing Denver Center
Sat 03:48:49 PM 40.5972 -100.8906 196° South 141 162 22,700 1,200 Climbing Denver Center
Sat 03:49:49 PM 40.5603 -100.9044 197° South 141 162 23,700 650 Climbing Denver Center
Sat 03:50:49 PM 40.5256 -100.9183 197° South 146 168 24,000 150 Climbing Denver Center
Sat 03:51:49 PM 40.4764 -100.9386 193° South 166 191 24,000  Level Denver Center
Sat 03:52:49 PM 40.4167 -100.9572 198° South 196 226 24,000  Level Denver Center
Sat 03:53:49 PM 40.3617 -100.9808 195° South 209 241 24,000  Level Denver Center
Sat 03:54:49 PM 40.3122 -100.9986 196° South 209 241 24,000  Level Denver Center
Sat 03:55:49 PM 40.2569 -101.0194 197° South 209 241 24,000  Level Denver Center
Sat 03:56:49 PM 40.1956 -101.0433 195° South 214 246 24,000  Level Denver Center
Sat 03:57:49 PM 40.1381 -101.0642 197° South 214 246 24,000  Level Denver Center
Sat 03:58:49 PM 40.0869 -101.0847 195° South 220 253 24,000  Level Denver Center
Sat 03:59:49 PM 40.0253 -101.1058 198° South 220 253 24,000  Level Denver Center
Sat 04:00:49 PM 39.9722 -101.1289 196° South 215 247 24,000  Level Denver Center
Sat 04:01:49 PM 39.9147 -101.1497 198° South 215 247 24,000  Level Denver Center
Sat 04:02:49 PM 39.8675 -101.1697 195° South 210 242 24,000  Level Denver Center
Sat 04:03:49 PM 39.8061 -101.1906 196° South 210 242 24,000  Level Denver Center
Sat 04:04:49 PM 39.7506 -101.2111 198° South 210 242 24,000  Level Denver Center
Sat 04:05:49 PM 39.6953 -101.2344 192° South 210 242 24,000  Level Denver Center
Sat 04:06:49 PM 39.6417 -101.2492 199° South 210 242 24,000  Level Denver Center
Sat 04:07:49 PM 39.5825 -101.2753 195° South 210 242 24,000  Level Denver Center
Sat 04:08:49 PM 39.5250 -101.2958 198° South 210 242 24,000  Level Denver Center
Sat 04:09:49 PM 39.4697 -101.3189 195° South 210 242 24,000  Level Denver Center
Sat 04:10:49 PM 39.4183 -101.3361 194° South 210 242 24,000  Level Denver Center
Sat 04:11:49 PM 39.3567 -101.3567 198° South 210 242 24,000  Level Denver Center
Sat 04:12:49 PM 39.3033 -101.3794 198° South 215 247 24,000  Level Denver Center
Sat 04:13:49 PM 39.2481 -101.4022 190° South 215 247 24,000  Level Denver Center
Sat 04:14:49 PM 39.1944 -101.4144 198° South 215 247 24,000  Level Denver Center
Sat 04:15:49 PM 39.1350 -101.4400 198° South 217 250 24,000  Level Denver Center
Sat 04:16:49 PM 39.0797 -101.4628 200° South 217 250 24,000  Level Denver Center
Sat 04:17:49 PM 39.0206 -101.4911 195° South 222 255 24,000  Level Denver Center
Sat 04:18:49 PM 38.9631 -101.5114 196° South 222 255 24,000  Level Denver Center
Sat 04:19:49 PM 38.9097 -101.5311 196° South 222 255 24,000  Level Denver Center
Sat 04:20:49 PM 38.8458 -101.5542 195° South 222 255 24,000  Level Denver Center
Sat 04:21:49 PM 38.7883 -101.5742 196° South 222 255 24,000  Level Denver Center
Sat 04:22:49 PM 38.7269 -101.5972 196° South 222 255 24,000  Level Denver Center
Sat 04:23:49 PM 38.6733 -101.6169 195° South 222 255 24,000  Level Denver Center
Sat 04:24:49 PM 38.6078 -101.6400 195° South 222 255 24,000  Level Denver Center
Sat 04:25:49 PM 38.5500 -101.6600 198° South 222 255 24,000  Level Denver Center
Sat 04:26:49 PM 38.4969 -101.6822 195° South 222 255 24,000  Level Denver Center
Sat 04:27:49 PM 38.4372 -101.7019 196° South 222 255 24,000  Level Denver Center
Sat 04:28:49 PM 38.3733 -101.7250 197° South 222 255 24,000  Level Denver Center
Sat 04:29:49 PM 38.3139 -101.7475 196° South 222 255 24,000  Level Denver Center
Sat 04:30:49 PM 38.2625 -101.7667 197° South 222 255 24,000  Level Denver Center
Sat 04:31:49 PM 38.2031 -101.7892 194° South 222 255 24,000  Level Denver Center
Sat 04:32:49 PM 38.1392 -101.8092 196° South 222 255 24,000  Level Denver Center
Sat 04:34:36 PM 38.0336 -101.8467 197° South 206 237 24,000 -36 Level Kansas City Center
Sat 04:35:36 PM 37.9803 -101.8678 195° South 221 254 23,900  Descending Kansas City Center
Sat 04:36:36 PM 37.9142 -101.8903 196° South 226 260 24,000 50 Climbing Kansas City Center
Sat 04:37:36 PM 37.8564 -101.9108 196° South 226 260 24,000  Level Kansas City Center
Sat 04:38:36 PM 37.7944 -101.9336 195° South 231 266 24,000  Level Kansas City Center
Sat 04:39:36 PM 37.7392 -101.9519 196° South 231 266 24,000 -50 Level Kansas City Center
Sat 04:40:36 PM 37.6731 -101.9767 197° South 231 266 23,900  Descending Kansas City Center
Sat 04:41:36 PM 37.6131 -101.9997 195° South 231 266 24,000  Climbing Kansas City Center
Sat 04:42:36 PM 37.5597 -102.0181 196° South 231 266 23,900  Descending Kansas City Center
Sat 04:43:36 PM 37.5022 -102.0386 195° South 231 266 24,000  Climbing Kansas City Center
Sat 04:45:09 PM 37.4047 -102.0706 196° South 223 257 23,900  Descending Albuquerque Center
Sat 04:46:11 PM 37.3475 -102.0906 196° South 223 257 24,000 48 Climbing Albuquerque Center
Sat 04:47:13 PM 37.2808 -102.1139 196° South 223 257 24,000  Level Albuquerque Center
Sat 04:48:14 PM 37.2233 -102.1350 196° South 224 258 24,000 -49 Level Albuquerque Center
Sat 04:49:16 PM 37.1561 -102.1586 195° South 225 259 23,900 -48 Descending Albuquerque Center
Sat 04:50:18 PM 37.0983 -102.1783 196° South 224 258 23,900 48 Level Albuquerque Center
Sat 04:51:20 PM 37.0325 -102.2017 196° South 223 257 24,000  Climbing Albuquerque Center
Sat 04:52:22 PM 36.9756 -102.2217 195° South 222 255 23,900 -49 Descending Albuquerque Center
Sat 04:53:23 PM 36.9083 -102.2439 196° South 223 257 23,900  Level Albuquerque Center
Sat 04:54:25 PM 36.8514 -102.2642 196° South 223 257 23,900 48 Level Albuquerque Center
Sat 04:55:27 PM 36.7839 -102.2886 195° South 225 259 24,000  Climbing Albuquerque Center
Sat 04:56:29 PM 36.7258 -102.3075 196° South 225 259 23,900 -48 Descending Albuquerque Center
Sat 04:57:31 PM 36.6675 -102.3278 196° South 227 261 23,900  Level Albuquerque Center
Sat 04:58:32 PM 36.5981 -102.3519 195° South 225 259 23,900  Level Albuquerque Center
Sat 04:59:34 PM 36.5386 -102.3717 196° South 222 255 23,900  Level Albuquerque Center
Sat 05:00:36 PM 36.4803 -102.3919 195° South 220 253 23,900  Level Albuquerque Center
Sat 05:01:38 PM 36.4197 -102.4125 196° South 223 257 23,900  Level Albuquerque Center
Sat 05:02:40 PM 36.3594 -102.4339 195° South 224 258 23,900  Level Albuquerque Center
Sat 05:03:41 PM 36.2994 -102.4536 196° South 223 257 23,900  Level Albuquerque Center
Sat 05:04:43 PM 36.2386 -102.4747 196° South 225 259 23,900  Level Albuquerque Center
Sat 05:05:45 PM 36.1653 -102.5000 195° South 227 261 23,900  Level Albuquerque Center
Sat 05:06:46 PM 36.1044 -102.5203 196° South 226 260 23,900  Level Albuquerque Center
Sat 05:07:48 PM 36.0442 -102.5411 195° South 226 260 23,900  Level Albuquerque Center
Sat 05:08:50 PM 35.9822 -102.5617 196° South 228 262 23,900  Level Albuquerque Center
Sat 05:09:52 PM 35.9217 -102.5825 196° South 227 261 23,900  Level Albuquerque Center
Sat 05:10:53 PM 35.8614 -102.6033 196° South 226 260 23,900  Level Albuquerque Center
Sat 05:11:55 PM 35.7997 -102.6244 195° South 228 262 23,900  Level Albuquerque Center
Sat 05:12:57 PM 35.7269 -102.6481 195° South 226 260 23,900  Level Albuquerque Center
Sat 05:13:59 PM 35.6669 -102.6683 195° South 225 259 23,900 -49 Level Albuquerque Center
Sat 05:15:00 PM 35.6058 -102.6883 196° South 226 260 23,800 -732 Descending Albuquerque Center
Sat 05:16:02 PM 35.5483 -102.7083 196° South 225 259 22,400 -1,500 Descending Albuquerque Center
Sat 05:17:04 PM 35.4836 -102.7308 195° South 231 266 20,700 -1,659 Descending Albuquerque Center
Sat 05:18:05 PM 35.4006 -102.7578 195° South 249 287 19,000 -829 Descending Albuquerque Center
Sat 05:19:07 PM 35.3353 -102.7786 196° South 247 284 19,000  Level Albuquerque Center
Sat 05:20:09 PM 35.2806 -102.7978 195° South 214 246 19,000  Level Albuquerque Center
Sat 05:21:10 PM 35.2278 -102.8153 195° South 200 230 19,000  Level Albuquerque Center
Sat 05:22:12 PM 35.1747 -102.8328 195° South 198 228 19,000  Level Albuquerque Center
Sat 05:23:14 PM 35.1194 -102.8511 196° South 194 223 19,000 -293 Level Albuquerque Center
Sat 05:24:15 PM 35.0631 -102.8706 195° South 197 227 18,400 -1,082 Descending Albuquerque Center
Sat 05:25:16 PM 35.0003 -102.8914 195° South 237 273 16,800 -1,636 Descending Albuquerque Center
Sat 05:26:16 PM 34.9314 -102.9133 195° South 248 285 15,100 -1,537 Descending Albuquerque Center
Sat 05:27:17 PM 34.8686 -102.9342 195° South 246 283 13,700 -1,388 Descending Albuquerque Center
Sat 05:28:17 PM 34.8081 -102.9544 194° South 213 245 12,300 -1,438 Descending Albuquerque Center
Sat 05:29:18 PM 34.7511 -102.9714 196° South 202 232 10,800 -1,377 Descending Albuquerque Center
Sat 05:30:19 PM 34.7008 -102.9894 194° South 198 228 9,500 -738 Descending Albuquerque Center
Sat 05:31:28 PM 34.6447 -103.0069 192° South 200 230 9,200 -261 Descending Albuquerque Center
Sat 05:38:32 PM 34.4167 -103.0667 309° West  Level FlightAware Approximate
Sat 05:39:32 PM 34.4543 -103.1227 309° West  Level Estimated

Login

Don't have an account? Register now (free) for customized features, flight alerts, and more!